Terminal Aerodrome Forecast
Issued by NWS

Home | Current Version | Previous Version | Text Only | Print | Product List | Glossary On
Versions: 1 2 3 4 5 6 7 8 9 10 11 12 13
000
FTUS46 KSTO 281300 AAA
TAFSAC
TAF AMD
KSAC 281356Z 2814/2912 VRB03KT 2SM BR SCT250
      TEMPO 2814/2817 4SM BR
     FM281700 VRB04KT 5SM HZ SCT250
     FM281900 32006KT P6SM FEW250
      TEMPO 2908/2912 4SM BR=

USA.gov is the U.S. government's official web portal to all federal, state and local government web resources and services.